createdAt,value
2022-08-19T00:00:09.355Z,2.00
2022-08-19T00:02:39.163Z,2.17
2022-08-19T00:05:20.093Z,2.10
2022-08-19T00:07:48.587Z,2.20
2022-08-19T00:10:18.404Z,2.13
2022-08-19T00:12:47.266Z,2.40
2022-08-19T00:15:18.960Z,2.40
2022-08-19T00:17:49.339Z,2.20
2022-08-19T00:20:22.262Z,2.33
2022-08-19T00:22:51.628Z,2.25
2022-08-19T00:25:30.407Z,2.42
2022-08-19T00:28:00.047Z,1.90
2022-08-19T00:30:29.333Z,2.33
2022-08-19T00:32:59.181Z,2.28
2022-08-19T00:35:28.363Z,2.13
2022-08-19T00:37:57.276Z,2.15
2022-08-19T00:40:26.168Z,1.80
2022-08-19T00:42:55.221Z,1.75
2022-08-19T00:45:26.862Z,1.73
2022-08-19T00:47:55.236Z,2.10
2022-08-19T00:50:26.673Z,1.90
2022-08-19T00:52:56.074Z,1.92
2022-08-19T00:55:29.811Z,2.00
2022-08-19T00:58:02.647Z,2.10
2022-08-19T01:00:37.631Z,2.20
2022-08-19T01:03:07.865Z,2.03
2022-08-19T01:05:38.958Z,2.20
2022-08-19T01:08:08.427Z,2.20
2022-08-19T01:10:41.662Z,2.10
2022-08-19T01:13:10.922Z,2.17
2022-08-19T01:15:44.527Z,2.00
2022-08-19T01:18:16.189Z,2.03
2022-08-19T01:20:46.691Z,2.17
2022-08-19T01:23:17.331Z,2.13
2022-08-19T01:25:49.725Z,2.33
2022-08-19T01:28:34.119Z,2.20
2022-08-19T01:31:26.761Z,1.98
2022-08-19T01:33:58.277Z,2.35
2022-08-19T01:36:31.824Z,2.10
2022-08-19T01:39:03.045Z,1.83
2022-08-19T01:41:31.411Z,2.22
2022-08-19T01:44:17.061Z,1.92
2022-08-19T01:46:48.379Z,1.98
2022-08-19T01:49:18.142Z,1.88
2022-08-19T01:51:46.749Z,1.70
2022-08-19T01:54:27.277Z,2.00
2022-08-19T01:57:00.089Z,1.83
2022-08-19T01:59:28.685Z,1.95
2022-08-19T02:01:57.293Z,1.92
2022-08-19T02:04:26.577Z,1.95
2022-08-19T02:06:55.075Z,1.65
2022-08-19T02:09:24.924Z,2.08
2022-08-19T02:11:53.316Z,1.70
2022-08-19T02:14:21.825Z,1.67
2022-08-19T02:16:50.322Z,1.70
2022-08-19T02:19:19.071Z,1.70
2022-08-19T02:21:47.616Z,1.85
2022-08-19T02:24:16.054Z,1.75
2022-08-19T02:26:45.964Z,1.83
2022-08-19T02:29:14.378Z,2.00
2022-08-19T02:31:42.751Z,1.90
2022-08-19T02:34:11.194Z,1.95
2022-08-19T02:36:42.515Z,1.85
2022-08-19T02:39:10.143Z,1.73
2022-08-19T02:41:38.555Z,1.80
2022-08-19T02:44:30.313Z,2.10
2022-08-19T02:46:56.723Z,1.77
2022-08-19T02:49:25.129Z,1.90
2022-08-19T02:51:53.563Z,1.98
2022-08-19T02:54:21.971Z,1.80
2022-08-19T02:56:51.093Z,1.90
2022-08-19T02:59:21.173Z,1.90
2022-08-19T03:01:51.737Z,2.00
2022-08-19T03:04:21.400Z,2.13
2022-08-19T03:06:50.479Z,2.13
2022-08-19T03:09:20.786Z,2.05
2022-08-19T03:11:49.882Z,1.70
2022-08-19T03:14:24.403Z,2.10
2022-08-19T03:16:54.571Z,2.10
2022-08-19T03:19:23.488Z,2.10
2022-08-19T03:21:52.940Z,2.00
2022-08-19T03:24:22.147Z,2.22
2022-08-19T03:26:53.796Z,2.03
2022-08-19T03:29:30.370Z,2.28
2022-08-19T03:32:01.891Z,2.45
2022-08-19T03:34:32.511Z,2.15
2022-08-19T03:37:06.360Z,2.20
2022-08-19T03:39:35.090Z,1.90
2022-08-19T03:42:31.994Z,2.20
2022-08-19T03:44:53.653Z,2.40
2022-08-19T03:47:22.080Z,2.10
2022-08-19T03:49:50.499Z,1.90
2022-08-19T03:52:18.897Z,1.88
2022-08-19T03:54:47.257Z,1.80
2022-08-19T03:57:15.646Z,2.10
2022-08-19T03:59:44.576Z,1.88
2022-08-19T04:02:15.455Z,1.90
2022-08-19T04:04:45.484Z,1.88
2022-08-19T04:07:17.298Z,2.08
2022-08-19T04:09:46.096Z,1.98
2022-08-19T04:12:14.535Z,2.08
2022-08-19T04:14:43.451Z,2.35
2022-08-19T04:17:14.097Z,2.25
2022-08-19T04:19:43.994Z,2.40
2022-08-19T04:22:13.648Z,2.30
2022-08-19T04:24:42.011Z,2.28
2022-08-19T04:27:10.518Z,2.33
2022-08-19T04:29:40.644Z,2.20
2022-08-19T04:32:09.912Z,2.20
2022-08-19T04:35:02.176Z,2.53
2022-08-19T04:37:35.146Z,2.25
2022-08-19T04:40:22.635Z,2.20
2022-08-19T04:42:51.152Z,2.22
2022-08-19T04:45:19.817Z,2.53
2022-08-19T04:47:58.516Z,2.30
2022-08-19T04:50:43.347Z,2.30
2022-08-19T04:53:12.035Z,2.40
2022-08-19T04:55:44.055Z,2.53
2022-08-19T04:58:12.554Z,2.42
2022-08-19T05:00:42.008Z,2.20
2022-08-19T05:03:10.458Z,2.40
2022-08-19T05:05:45.190Z,2.88
2022-08-19T05:08:14.269Z,2.83
2022-08-19T05:10:44.431Z,2.60
2022-08-19T05:13:13.046Z,3.10
2022-08-19T05:15:41.574Z,3.30
2022-08-19T05:18:27.582Z,3.05
2022-08-19T05:21:15.311Z,3.05
2022-08-19T05:23:45.468Z,3.10
2022-08-19T05:26:14.065Z,3.20
2022-08-19T05:28:42.457Z,3.05
2022-08-19T05:31:10.884Z,3.00
2022-08-19T05:33:40.787Z,3.10
2022-08-19T05:36:11.035Z,2.97
2022-08-19T05:38:39.528Z,3.63
2022-08-19T05:41:10.181Z,3.40
2022-08-19T05:43:39.347Z,2.75
2022-08-19T05:46:08.382Z,3.00
2022-08-19T05:48:37.652Z,3.25
2022-08-19T05:51:07.518Z,3.30
2022-08-19T05:53:37.792Z,3.00
2022-08-19T05:56:07.924Z,3.17
2022-08-19T05:58:36.646Z,3.53
2022-08-19T06:01:06.838Z,2.97
2022-08-19T06:03:35.748Z,3.40
2022-08-19T06:06:04.671Z,3.58
2022-08-19T06:08:35.036Z,3.25
2022-08-19T06:11:21.403Z,3.50
2022-08-19T06:13:59.753Z,3.60
2022-08-19T06:16:29.260Z,4.00
2022-08-19T06:18:59.119Z,4.43
2022-08-19T06:21:29.733Z,3.33
2022-08-19T06:24:00.753Z,3.35
2022-08-19T06:26:30.593Z,3.17
2022-08-19T06:28:59.507Z,3.13
2022-08-19T06:31:32.348Z,3.33
2022-08-19T06:34:00.726Z,3.30
2022-08-19T06:36:32.798Z,3.60
2022-08-19T06:39:02.046Z,3.45
2022-08-19T06:41:32.706Z,3.22
2022-08-19T06:44:01.124Z,3.45
2022-08-19T06:46:30.191Z,3.88
2022-08-19T06:49:04.021Z,3.55
2022-08-19T06:54:08.194Z,3.60
2022-08-19T06:56:49.875Z,3.65
2022-08-19T06:59:20.342Z,3.65
2022-08-19T07:01:50.782Z,3.50
2022-08-19T07:04:21.731Z,4.22
2022-08-19T07:06:55.293Z,4.32
2022-08-19T07:09:24.484Z,4.18
2022-08-19T07:11:55.617Z,4.93
2022-08-19T07:14:26.311Z,4.32
2022-08-19T07:16:57.112Z,5.03
2022-08-19T07:19:28.466Z,5.40
2022-08-19T07:21:57.569Z,4.50
2022-08-19T07:24:27.986Z,5.00
2022-08-19T07:27:13.076Z,4.10
2022-08-19T07:29:43.805Z,4.82
2022-08-19T07:32:13.512Z,4.50
2022-08-19T07:34:42.060Z,4.60
2022-08-19T07:37:11.519Z,4.55
2022-08-19T07:39:40.855Z,5.10
2022-08-19T07:42:13.292Z,5.15
2022-08-19T07:44:43.113Z,4.45
2022-08-19T07:47:48.872Z,5.35
2022-08-19T07:50:10.448Z,4.60
2022-08-19T07:52:40.576Z,4.13
2022-08-19T07:55:39.880Z,5.32
2022-08-19T07:58:00.887Z,7.85
2022-08-19T08:00:31.677Z,8.85
2022-08-19T08:03:00.195Z,8.73
2022-08-19T08:05:45.785Z,10.45
2022-08-19T08:08:37.561Z,9.13
2022-08-19T08:11:15.413Z,8.00
2022-08-19T08:13:45.848Z,5.82
2022-08-19T08:16:14.575Z,5.13
2022-08-19T08:18:50.717Z,5.20
2022-08-19T08:21:21.571Z,4.13
2022-08-19T08:23:52.098Z,5.30
2022-08-19T08:26:21.611Z,4.93
2022-08-19T08:28:51.432Z,4.55
2022-08-19T08:31:21.153Z,4.97
2022-08-19T08:33:50.009Z,4.55
2022-08-19T08:36:19.293Z,5.10
2022-08-19T08:38:48.445Z,4.10
2022-08-19T08:41:39.304Z,3.60
2022-08-19T08:44:17.179Z,3.03
2022-08-19T08:46:49.405Z,2.30
2022-08-19T08:49:31.851Z,1.83
2022-08-19T08:52:04.604Z,1.88
2022-08-19T08:54:37.869Z,1.42
2022-08-19T08:57:12.168Z,1.40
2022-08-19T08:59:44.176Z,1.58
2022-08-19T09:02:12.683Z,1.00
2022-08-19T09:04:41.361Z,1.15
2022-08-19T09:07:33.871Z,1.10
2022-08-19T09:10:12.436Z,0.93
2022-08-19T09:12:51.110Z,1.10
2022-08-19T09:15:38.804Z,0.80
2022-08-19T09:18:08.196Z,0.80
2022-08-19T09:20:43.940Z,0.82
2022-08-19T09:23:12.949Z,1.02
2022-08-19T09:25:42.122Z,0.70
2022-08-19T09:28:12.703Z,0.90
2022-08-19T09:30:54.131Z,1.13
2022-08-19T09:33:31.160Z,1.15
2022-08-19T09:42:30.279Z,1.67
2022-08-19T09:45:13.432Z,1.42
2022-08-19T09:47:41.873Z,1.35
2022-08-19T09:50:16.553Z,1.33
2022-08-19T09:52:54.133Z,1.20
2022-08-19T09:55:31.196Z,1.33
2022-08-19T09:58:01.475Z,1.20
2022-08-19T10:00:32.466Z,1.52
2022-08-19T10:03:01.141Z,1.02
2022-08-19T10:05:48.674Z,1.20
2022-08-19T10:08:18.747Z,1.30
2022-08-19T10:10:50.311Z,1.00
2022-08-19T10:13:21.503Z,1.17
2022-08-19T10:15:52.555Z,1.10
2022-08-19T10:18:23.049Z,1.30
2022-08-19T10:20:53.394Z,1.45
2022-08-19T10:23:23.150Z,1.50
2022-08-19T10:25:54.611Z,1.25
2022-08-19T10:28:24.119Z,1.33
2022-08-19T10:30:54.314Z,1.20
2022-08-19T10:33:38.291Z,1.30
2022-08-19T10:36:18.513Z,1.40
2022-08-19T10:38:52.267Z,1.35
2022-08-19T10:41:26.519Z,1.27
2022-08-19T10:43:57.653Z,1.52
2022-08-19T10:46:36.094Z,1.35
2022-08-19T10:49:05.756Z,1.40
2022-08-19T10:51:51.865Z,1.40
2022-08-19T10:54:29.571Z,1.40
2022-08-19T10:57:00.811Z,1.50
2022-08-19T10:59:35.819Z,1.33
2022-08-19T11:02:10.672Z,1.58
2022-08-19T11:04:39.205Z,1.50
2022-08-19T11:07:08.777Z,1.63
2022-08-19T11:09:41.682Z,1.23
2022-08-19T11:12:10.971Z,1.20
2022-08-19T11:14:40.557Z,1.20
2022-08-19T11:17:12.085Z,1.20
2022-08-19T11:19:40.476Z,1.30
2022-08-19T11:22:10.541Z,1.13
2022-08-19T11:24:44.679Z,1.30
2022-08-19T11:27:13.182Z,1.35
2022-08-19T11:29:41.665Z,1.13
2022-08-19T11:32:14.067Z,1.00
2022-08-19T11:34:42.510Z,1.30
2022-08-19T11:37:10.946Z,1.13
2022-08-19T11:39:39.910Z,1.30
2022-08-19T11:42:29.215Z,1.10
2022-08-19T11:44:57.665Z,1.02
2022-08-19T11:47:27.635Z,1.20
2022-08-19T11:49:56.256Z,1.10
2022-08-19T11:52:25.174Z,1.15
2022-08-19T11:54:53.565Z,1.38
2022-08-19T11:57:21.976Z,1.40
2022-08-19T11:59:51.834Z,1.40
2022-08-19T12:02:20.933Z,1.65
2022-08-19T12:04:50.902Z,1.33
2022-08-19T12:07:19.301Z,1.65
2022-08-19T12:09:48.833Z,1.05
2022-08-19T12:12:17.717Z,1.38
2022-08-19T12:14:47.612Z,1.48
2022-08-19T12:17:16.287Z,1.50
2022-08-19T12:19:45.553Z,1.42
2022-08-19T12:22:15.423Z,1.20
2022-08-19T12:24:44.371Z,1.38
2022-08-19T12:27:13.121Z,1.20
2022-08-19T12:30:03.008Z,1.30
2022-08-19T12:32:31.635Z,1.38
2022-08-19T12:35:07.410Z,1.42
2022-08-19T12:37:37.327Z,1.27
2022-08-19T12:40:07.322Z,1.27
2022-08-19T12:42:35.920Z,1.50
2022-08-19T12:45:06.927Z,1.40
2022-08-19T12:47:38.031Z,1.23
2022-08-19T12:50:10.059Z,1.65
2022-08-19T12:52:39.994Z,1.50
2022-08-19T12:55:10.453Z,1.20
2022-08-19T12:57:38.855Z,1.35
2022-08-19T13:00:12.353Z,1.30
2022-08-19T13:02:41.829Z,1.10
2022-08-19T13:05:12.985Z,1.20
2022-08-19T13:07:44.887Z,1.20
2022-08-19T13:10:16.450Z,1.30
2022-08-19T13:12:45.954Z,1.30
2022-08-19T13:15:15.343Z,1.20
2022-08-19T13:17:44.021Z,1.27
2022-08-19T13:20:13.575Z,1.30
2022-08-19T13:22:43.371Z,1.20
2022-08-19T13:25:12.419Z,1.23
2022-08-19T13:27:41.453Z,1.13
2022-08-19T13:30:29.803Z,1.13
2022-08-19T13:33:13.094Z,1.10
2022-08-19T13:35:46.592Z,1.30
2022-08-19T13:38:18.350Z,1.00
2022-08-19T13:40:47.486Z,1.00
2022-08-19T13:43:23.150Z,1.17
2022-08-19T13:45:57.587Z,0.98
2022-08-19T13:48:28.078Z,1.17
2022-08-19T13:50:57.034Z,0.90
2022-08-19T13:53:26.959Z,1.00
2022-08-19T13:55:55.557Z,1.10
2022-08-19T13:58:24.563Z,1.00
2022-08-19T14:00:53.062Z,1.10
2022-08-19T14:03:21.716Z,1.00
2022-08-19T14:05:50.233Z,0.90
2022-08-19T14:08:19.453Z,0.93
2022-08-19T14:10:49.732Z,0.93
2022-08-19T14:13:20.018Z,0.80
2022-08-19T14:15:49.391Z,1.00
2022-08-19T14:18:18.869Z,0.95
2022-08-19T14:20:47.818Z,1.00
2022-08-19T14:23:16.301Z,0.90
2022-08-19T14:25:45.673Z,1.10
2022-08-19T14:28:15.536Z,1.00
2022-08-19T14:30:45.600Z,1.08
2022-08-19T14:33:15.305Z,1.00
2022-08-19T14:35:45.750Z,0.90
2022-08-19T14:38:19.014Z,1.00
2022-08-19T14:40:56.915Z,0.90
2022-08-19T14:43:26.743Z,1.00
2022-08-19T14:45:55.228Z,1.10
2022-08-19T14:48:23.639Z,1.00
2022-08-19T14:50:57.486Z,1.20
2022-08-19T14:53:26.275Z,1.17
2022-08-19T14:55:55.070Z,1.20
2022-08-19T14:58:29.042Z,1.17
2022-08-19T15:01:01.195Z,1.48
2022-08-19T15:03:30.601Z,1.05
2022-08-19T15:05:59.097Z,1.00
2022-08-19T15:08:28.168Z,1.30
2022-08-19T15:10:57.096Z,1.17
2022-08-19T15:13:27.237Z,1.15
2022-08-19T15:15:56.506Z,1.08
2022-08-19T15:18:26.822Z,1.00
2022-08-19T15:20:56.101Z,1.05
2022-08-19T15:23:24.585Z,1.00
2022-08-19T15:25:56.599Z,1.10
2022-08-19T15:28:25.999Z,1.40
2022-08-19T15:30:54.729Z,1.30
2022-08-19T15:33:23.164Z,1.30
2022-08-19T15:35:54.089Z,1.45
2022-08-19T15:38:23.828Z,1.33
2022-08-19T15:40:52.611Z,1.40
2022-08-19T15:43:22.521Z,1.30
2022-08-19T15:45:50.929Z,1.23
2022-08-19T15:48:19.337Z,1.42
2022-08-19T15:50:47.786Z,1.13
2022-08-19T15:53:17.813Z,1.35
2022-08-19T15:55:48.641Z,1.20
2022-08-19T15:58:35.052Z,1.30
2022-08-19T16:01:24.106Z,1.42
2022-08-19T16:04:14.647Z,1.40
2022-08-19T16:06:46.451Z,1.23
2022-08-19T16:09:17.463Z,1.27
2022-08-19T16:11:56.494Z,1.30
2022-08-19T16:14:26.333Z,1.40
2022-08-19T16:16:56.955Z,1.30
2022-08-19T16:19:25.905Z,1.42
2022-08-19T16:21:57.414Z,1.67
2022-08-19T16:24:28.835Z,1.40
2022-08-19T16:26:58.313Z,1.30
2022-08-19T16:29:33.808Z,1.27
2022-08-19T16:32:04.805Z,1.30
2022-08-19T16:34:34.627Z,1.38
2022-08-19T16:37:03.218Z,1.13
2022-08-19T16:39:33.015Z,1.30
2022-08-19T16:42:01.512Z,1.10
2022-08-19T16:44:30.154Z,1.42
2022-08-19T16:46:59.710Z,1.50
2022-08-19T16:49:53.158Z,1.30
2022-08-19T16:52:18.202Z,1.40
2022-08-19T16:54:48.798Z,1.27
2022-08-19T16:57:17.420Z,1.65
2022-08-19T16:59:48.735Z,1.90
2022-08-19T17:02:18.291Z,1.67
2022-08-19T17:04:55.929Z,1.67
2022-08-19T17:07:27.234Z,1.23
2022-08-19T17:09:57.714Z,1.33
2022-08-19T17:12:29.032Z,1.50
2022-08-19T17:15:01.050Z,1.25
2022-08-19T17:17:30.082Z,1.30
2022-08-19T17:19:59.184Z,1.38
2022-08-19T17:22:28.106Z,1.40
2022-08-19T17:24:58.711Z,1.70
2022-08-19T17:27:31.344Z,1.48
2022-08-19T17:30:02.626Z,1.55
2022-08-19T17:32:32.637Z,1.73
2022-08-19T17:35:01.075Z,1.67
2022-08-19T17:37:29.664Z,1.55
2022-08-19T17:39:59.830Z,1.67
2022-08-19T17:42:28.302Z,1.77
2022-08-19T17:44:59.664Z,2.22
2022-08-19T17:47:28.602Z,2.08
2022-08-19T17:49:57.441Z,2.05
2022-08-19T17:52:26.223Z,2.08
2022-08-19T17:54:55.242Z,1.85
2022-08-19T17:57:25.088Z,2.00
2022-08-19T17:59:53.993Z,1.80
2022-08-19T18:02:22.520Z,1.55
2022-08-19T18:04:51.106Z,1.60
2022-08-19T18:07:21.664Z,1.60
2022-08-19T18:09:52.918Z,1.70
2022-08-19T18:12:27.082Z,1.45
2022-08-19T18:14:55.476Z,1.67
2022-08-19T18:17:25.560Z,1.58
2022-08-19T18:19:53.993Z,1.45
2022-08-19T18:22:26.337Z,1.50
2022-08-19T18:24:55.095Z,1.33
2022-08-19T18:27:25.071Z,1.60
2022-08-19T18:29:54.683Z,1.23
2022-08-19T18:32:25.885Z,1.50
2022-08-19T18:34:55.039Z,1.55
2022-08-19T18:37:25.527Z,1.90
2022-08-19T18:40:11.949Z,1.65
2022-08-19T18:43:03.251Z,1.70
2022-08-19T18:45:49.650Z,1.73
2022-08-19T18:48:35.598Z,1.48
2022-08-19T18:51:04.209Z,1.65
2022-08-19T18:53:35.062Z,1.58
2022-08-19T18:56:03.637Z,1.42
2022-08-19T18:58:35.128Z,1.50
2022-08-19T19:01:11.629Z,1.55
2022-08-19T19:03:42.124Z,1.45
2022-08-19T19:06:10.729Z,1.50
2022-08-19T19:08:41.091Z,1.70
2022-08-19T19:11:09.810Z,1.45
2022-08-19T19:13:41.252Z,1.65
2022-08-19T19:16:11.681Z,1.65
2022-08-19T19:18:40.336Z,1.45
2022-08-19T19:21:09.649Z,1.35
2022-08-19T19:23:41.104Z,1.33
2022-08-19T19:26:10.944Z,1.50
2022-08-19T19:28:48.158Z,1.60
2022-08-19T19:31:18.257Z,1.67
2022-08-19T19:33:47.141Z,1.60
2022-08-19T19:36:16.105Z,1.50
2022-08-19T19:38:48.576Z,1.60
2022-08-19T19:41:21.401Z,1.42
2022-08-19T19:44:04.598Z,1.70
2022-08-19T19:46:42.486Z,1.50
2022-08-19T19:49:12.123Z,1.60
2022-08-19T19:51:41.418Z,1.70
2022-08-19T19:54:14.057Z,1.55
2022-08-19T19:56:46.158Z,1.60
2022-08-19T19:59:16.044Z,1.50
2022-08-19T20:01:46.992Z,1.50
2022-08-19T20:04:16.122Z,1.40
2022-08-19T20:06:45.737Z,1.42
2022-08-19T20:09:19.631Z,1.42
2022-08-19T20:11:53.503Z,1.42
2022-08-19T20:14:25.745Z,1.50
2022-08-19T20:16:56.085Z,1.50
2022-08-19T20:19:27.324Z,1.50
2022-08-19T20:21:57.547Z,1.65
2022-08-19T20:24:28.258Z,1.45
2022-08-19T20:26:56.917Z,1.40
2022-08-19T20:29:38.090Z,1.50
2022-08-19T20:32:08.316Z,1.20
2022-08-19T20:34:37.412Z,1.33
2022-08-19T20:37:07.875Z,1.50
2022-08-19T20:39:36.257Z,1.40
2022-08-19T20:42:05.496Z,1.50
2022-08-19T20:44:35.695Z,1.42
2022-08-19T20:47:04.367Z,1.50
2022-08-19T20:49:33.020Z,1.55
2022-08-19T20:52:01.382Z,1.40
2022-08-19T20:54:29.940Z,1.75
2022-08-19T21:00:40.854Z,1.67
2022-08-19T21:03:09.301Z,1.50
2022-08-19T21:05:37.668Z,1.50
2022-08-19T21:08:06.091Z,1.38
2022-08-19T21:10:34.561Z,1.65
2022-08-19T21:13:04.251Z,1.50
2022-08-19T21:15:33.279Z,1.50
2022-08-19T21:18:03.084Z,1.65
2022-08-19T21:20:31.465Z,1.50
2022-08-19T21:23:03.658Z,1.48
2022-08-19T21:25:32.151Z,1.45
2022-08-19T21:28:00.698Z,1.48
2022-08-19T21:30:31.406Z,1.80
2022-08-19T21:33:02.965Z,1.58
2022-08-19T21:35:33.923Z,1.60
2022-08-19T21:38:02.542Z,1.50
2022-08-19T21:40:31.273Z,1.50
2022-08-19T21:43:02.066Z,1.50
2022-08-19T21:45:31.039Z,1.50
2022-08-19T21:47:59.478Z,1.42
2022-08-19T21:50:31.901Z,1.40
2022-08-19T21:53:00.584Z,1.50
2022-08-19T21:55:29.697Z,1.50
2022-08-19T21:58:00.104Z,1.50
2022-08-19T22:00:32.248Z,1.60
2022-08-19T22:03:01.402Z,1.50
2022-08-19T22:05:31.616Z,1.50
2022-08-19T22:08:01.004Z,1.58
2022-08-19T22:10:32.333Z,1.38
2022-08-19T22:13:00.971Z,1.35
2022-08-19T22:15:29.946Z,1.42
2022-08-19T22:17:59.696Z,1.50
2022-08-19T22:20:32.739Z,1.30
2022-08-19T22:23:06.007Z,1.48
2022-08-19T22:25:37.230Z,1.48
2022-08-19T22:28:07.960Z,1.60
2022-08-19T22:30:42.414Z,1.33
2022-08-19T22:33:13.969Z,1.70
2022-08-19T22:35:45.086Z,1.80
2022-08-19T22:38:14.554Z,1.67
2022-08-19T22:40:47.505Z,1.60
2022-08-19T22:43:18.597Z,1.80
2022-08-19T22:45:48.428Z,1.40
2022-08-19T22:48:19.633Z,1.70
2022-08-19T22:51:04.517Z,1.67
2022-08-19T22:53:33.192Z,1.52
2022-08-19T22:56:01.810Z,1.77
2022-08-19T22:58:30.534Z,1.70
2022-08-19T23:00:59.172Z,1.60
2022-08-19T23:03:28.058Z,1.40
2022-08-19T23:05:58.510Z,1.50
2022-08-19T23:08:26.990Z,1.63
2022-08-19T23:10:55.465Z,1.60
2022-08-19T23:13:24.879Z,1.50
2022-08-19T23:15:53.321Z,1.40
2022-08-19T23:18:22.218Z,1.50
2022-08-19T23:20:50.703Z,1.40
2022-08-19T23:23:24.696Z,1.33
2022-08-19T23:25:53.969Z,1.20
2022-08-19T23:28:39.938Z,1.30
2022-08-19T23:31:09.219Z,1.38
2022-08-19T23:33:51.256Z,1.33
2022-08-19T23:36:22.617Z,1.30
2022-08-19T23:38:53.344Z,1.33
2022-08-19T23:41:23.451Z,1.30
2022-08-19T23:43:54.785Z,1.58
2022-08-19T23:46:27.515Z,1.30
2022-08-19T23:48:57.135Z,1.52
2022-08-19T23:51:26.819Z,1.73
2022-08-19T23:53:56.717Z,1.65
2022-08-19T23:56:25.179Z,1.63
2022-08-19T23:58:54.950Z,1.50
